sensor_id;sensor_type;location;lat;lon;timestamp;pressure;altitude;pressure_sealevel;temperature;humidity
28911;BME280;16028;42.642;23.310;2022-12-08T00:00:00;93828.19;;;5.20;100.00
28911;BME280;16028;42.642;23.310;2022-12-08T00:02:27;93830.91;;;5.19;100.00
28911;BME280;16028;42.642;23.310;2022-12-08T00:04:53;93838.31;;;5.12;100.00
28911;BME280;16028;42.642;23.310;2022-12-08T00:07:37;93842.19;;;5.07;100.00
28911;BME280;16028;42.642;23.310;2022-12-08T00:10:21;93850.75;;;5.07;100.00
28911;BME280;16028;42.642;23.310;2022-12-08T00:12:48;93853.75;;;5.12;100.00
28911;BME280;16028;42.642;23.310;2022-12-08T00:15:16;93859.03;;;5.11;100.00
28911;BME280;16028;42.642;23.310;2022-12-08T00:17:43;93861.94;;;5.17;100.00
28911;BME280;16028;42.642;23.310;2022-12-08T00:20:10;93873.81;;;5.20;100.00
28911;BME280;16028;42.642;23.310;2022-12-08T00:22:37;93882.34;;;5.09;100.00
28911;BME280;16028;42.642;23.310;2022-12-08T00:25:05;93880.25;;;5.03;100.00
28911;BME280;16028;42.642;23.310;2022-12-08T00:27:31;93868.97;;;5.04;100.00
28911;BME280;16028;42.642;23.310;2022-12-08T00:29:58;93868.19;;;5.04;100.00
28911;BME280;16028;42.642;23.310;2022-12-08T00:32:26;93868.44;;;5.01;100.00
28911;BME280;16028;42.642;23.310;2022-12-08T00:34:53;93867.13;;;5.06;100.00
28911;BME280;16028;42.642;23.310;2022-12-08T00:37:20;93864.53;;;5.17;100.00
28911;BME280;16028;42.642;23.310;2022-12-08T00:39:46;93872.63;;;5.13;100.00
28911;BME280;16028;42.642;23.310;2022-12-08T00:42:13;93873.22;;;5.16;100.00
28911;BME280;16028;42.642;23.310;2022-12-08T00:44:40;93870.97;;;5.12;100.00
28911;BME280;16028;42.642;23.310;2022-12-08T00:47:07;93871.91;;;5.22;100.00
28911;BME280;16028;42.642;23.310;2022-12-08T00:49:36;93876.50;;;5.18;100.00
28911;BME280;16028;42.642;23.310;2022-12-08T00:52:03;93883.16;;;5.21;100.00
28911;BME280;16028;42.642;23.310;2022-12-08T00:54:30;93889.63;;;5.15;100.00
28911;BME280;16028;42.642;23.310;2022-12-08T00:56:56;93886.44;;;5.12;100.00
28911;BME280;16028;42.642;23.310;2022-12-08T00:59:23;93888.34;;;5.10;100.00
28911;BME280;16028;42.642;23.310;2022-12-08T01:01:50;93879.53;;;5.12;100.00
28911;BME280;16028;42.642;23.310;2022-12-08T01:04:18;93870.06;;;5.13;100.00
28911;BME280;16028;42.642;23.310;2022-12-08T01:06:46;93857.03;;;5.14;100.00
28911;BME280;16028;42.642;23.310;2022-12-08T01:09:15;93864.06;;;5.12;100.00
28911;BME280;16028;42.642;23.310;2022-12-08T01:11:42;93869.00;;;5.15;100.00
28911;BME280;16028;42.642;23.310;2022-12-08T01:14:09;93864.41;;;5.19;100.00
28911;BME280;16028;42.642;23.310;2022-12-08T01:16:36;93866.63;;;5.23;100.00
28911;BME280;16028;42.642;23.310;2022-12-08T01:19:05;93862.88;;;5.27;100.00
28911;BME280;16028;42.642;23.310;2022-12-08T01:21:32;93874.13;;;5.26;100.00
28911;BME280;16028;42.642;23.310;2022-12-08T01:24:00;93873.44;;;5.24;100.00
28911;BME280;16028;42.642;23.310;2022-12-08T01:26:27;93873.31;;;5.26;100.00
28911;BME280;16028;42.642;23.310;2022-12-08T01:28:54;93877.06;;;5.22;100.00
28911;BME280;16028;42.642;23.310;2022-12-08T01:31:21;93872.59;;;5.24;100.00
28911;BME280;16028;42.642;23.310;2022-12-08T01:33:48;93868.16;;;5.26;100.00
28911;BME280;16028;42.642;23.310;2022-12-08T01:36:19;93874.69;;;5.30;100.00
28911;BME280;16028;42.642;23.310;2022-12-08T01:38:46;93869.53;;;5.30;100.00
28911;BME280;16028;42.642;23.310;2022-12-08T01:41:19;93855.63;;;5.21;100.00
28911;BME280;16028;42.642;23.310;2022-12-08T01:43:54;93852.34;;;5.19;100.00
28911;BME280;16028;42.642;23.310;2022-12-08T01:46:22;93840.53;;;5.17;100.00
28911;BME280;16028;42.642;23.310;2022-12-08T01:48:50;93834.91;;;5.23;100.00
28911;BME280;16028;42.642;23.310;2022-12-08T01:51:18;93851.28;;;5.22;100.00
28911;BME280;16028;42.642;23.310;2022-12-08T01:53:45;93839.72;;;5.16;100.00
28911;BME280;16028;42.642;23.310;2022-12-08T01:56:18;93842.88;;;5.20;100.00
28911;BME280;16028;42.642;23.310;2022-12-08T01:58:47;93839.81;;;5.15;100.00
28911;BME280;16028;42.642;23.310;2022-12-08T02:01:15;93830.81;;;5.09;100.00
28911;BME280;16028;42.642;23.310;2022-12-08T02:03:45;93829.75;;;5.12;100.00
28911;BME280;16028;42.642;23.310;2022-12-08T02:06:13;93836.53;;;5.13;100.00
28911;BME280;16028;42.642;23.310;2022-12-08T02:08:41;93832.91;;;5.04;100.00
28911;BME280;16028;42.642;23.310;2022-12-08T02:11:08;93841.34;;;4.95;100.00
28911;BME280;16028;42.642;23.310;2022-12-08T02:13:37;93840.91;;;4.90;100.00
28911;BME280;16028;42.642;23.310;2022-12-08T02:16:09;93836.69;;;4.89;100.00
28911;BME280;16028;42.642;23.310;2022-12-08T02:18:50;93832.34;;;4.90;100.00
28911;BME280;16028;42.642;23.310;2022-12-08T02:21:23;93834.69;;;4.93;100.00
28911;BME280;16028;42.642;23.310;2022-12-08T02:24:01;93839.72;;;4.94;100.00
28911;BME280;16028;42.642;23.310;2022-12-08T02:26:59;93830.00;;;4.87;100.00
28911;BME280;16028;42.642;23.310;2022-12-08T02:35:43;93831.06;;;4.73;100.00
28911;BME280;16028;42.642;23.310;2022-12-08T02:38:15;93833.66;;;4.62;100.00
28911;BME280;16028;42.642;23.310;2022-12-08T02:40:49;93814.66;;;4.63;100.00
28911;BME280;16028;42.642;23.310;2022-12-08T02:43:23;93822.28;;;4.64;100.00
28911;BME280;16028;42.642;23.310;2022-12-08T02:45:58;93830.13;;;4.63;100.00
28911;BME280;16028;42.642;23.310;2022-12-08T02:48:26;93824.72;;;4.66;100.00
28911;BME280;16028;42.642;23.310;2022-12-08T02:50:55;93828.25;;;4.65;100.00
28911;BME280;16028;42.642;23.310;2022-12-08T02:53:21;93823.09;;;4.54;100.00
28911;BME280;16028;42.642;23.310;2022-12-08T02:55:55;93817.84;;;4.55;100.00
28911;BME280;16028;42.642;23.310;2022-12-08T02:58:34;93821.09;;;4.57;100.00
28911;BME280;16028;42.642;23.310;2022-12-08T03:01:21;93822.75;;;4.58;100.00
28911;BME280;16028;42.642;23.310;2022-12-08T03:03:58;93814.78;;;4.61;100.00
28911;BME280;16028;42.642;23.310;2022-12-08T03:06:34;93821.13;;;4.68;100.00
28911;BME280;16028;42.642;23.310;2022-12-08T03:09:09;93818.41;;;4.70;100.00
28911;BME280;16028;42.642;23.310;2022-12-08T03:11:43;93822.63;;;4.71;100.00
28911;BME280;16028;42.642;23.310;2022-12-08T03:14:16;93831.53;;;4.78;100.00
28911;BME280;16028;42.642;23.310;2022-12-08T03:16:45;93827.41;;;4.75;100.00
28911;BME280;16028;42.642;23.310;2022-12-08T03:19:17;93822.50;;;4.72;100.00
28911;BME280;16028;42.642;23.310;2022-12-08T03:21:49;93821.81;;;4.70;100.00
28911;BME280;16028;42.642;23.310;2022-12-08T03:24:17;93819.56;;;4.66;100.00
28911;BME280;16028;42.642;23.310;2022-12-08T03:26:49;93821.47;;;4.64;100.00
28911;BME280;16028;42.642;23.310;2022-12-08T03:29:17;93821.47;;;4.64;100.00
28911;BME280;16028;42.642;23.310;2022-12-08T03:31:49;93818.28;;;4.60;100.00
28911;BME280;16028;42.642;23.310;2022-12-08T03:34:17;93819.34;;;4.58;100.00
28911;BME280;16028;42.642;23.310;2022-12-08T03:36:46;93821.84;;;4.59;100.00
28911;BME280;16028;42.642;23.310;2022-12-08T03:39:13;93816.78;;;4.58;100.00
28911;BME280;16028;42.642;23.310;2022-12-08T03:41:40;93815.13;;;4.57;100.00
28911;BME280;16028;42.642;23.310;2022-12-08T03:44:06;93817.59;;;4.58;100.00
28911;BME280;16028;42.642;23.310;2022-12-08T03:46:33;93821.94;;;4.58;100.00
28911;BME280;16028;42.642;23.310;2022-12-08T03:49:00;93829.56;;;4.59;100.00
28911;BME280;16028;42.642;23.310;2022-12-08T03:51:27;93836.91;;;4.64;100.00
28911;BME280;16028;42.642;23.310;2022-12-08T03:53:55;93824.03;;;4.53;100.00
28911;BME280;16028;42.642;23.310;2022-12-08T03:56:24;93823.22;;;4.52;100.00
28911;BME280;16028;42.642;23.310;2022-12-08T03:58:51;93831.31;;;4.59;100.00
28911;BME280;16028;42.642;23.310;2022-12-08T04:01:18;93839.72;;;4.61;100.00
28911;BME280;16028;42.642;23.310;2022-12-08T04:03:45;93829.66;;;4.58;100.00
28911;BME280;16028;42.642;23.310;2022-12-08T04:06:12;93837.16;;;4.61;100.00
28911;BME280;16028;42.642;23.310;2022-12-08T04:08:39;93840.56;;;4.61;100.00
28911;BME280;16028;42.642;23.310;2022-12-08T04:11:07;93836.56;;;4.68;100.00
28911;BME280;16028;42.642;23.310;2022-12-08T04:13:35;93855.53;;;4.67;100.00
28911;BME280;16028;42.642;23.310;2022-12-08T04:16:03;93849.69;;;4.65;100.00
28911;BME280;16028;42.642;23.310;2022-12-08T04:18:30;93856.59;;;4.65;100.00
28911;BME280;16028;42.642;23.310;2022-12-08T04:20:57;93849.56;;;4.67;100.00
28911;BME280;16028;42.642;23.310;2022-12-08T04:23:24;93845.22;;;4.67;100.00
28911;BME280;16028;42.642;23.310;2022-12-08T04:25:51;93844.31;;;4.68;100.00
28911;BME280;16028;42.642;23.310;2022-12-08T04:28:19;93842.19;;;4.62;100.00
28911;BME280;16028;42.642;23.310;2022-12-08T04:30:46;93839.75;;;4.72;100.00
28911;BME280;16028;42.642;23.310;2022-12-08T04:33:13;93837.28;;;4.70;100.00
28911;BME280;16028;42.642;23.310;2022-12-08T04:35:40;93841.13;;;4.76;100.00
28911;BME280;16028;42.642;23.310;2022-12-08T04:38:07;93834.47;;;4.73;100.00
28911;BME280;16028;42.642;23.310;2022-12-08T04:40:34;93835.97;;;4.76;100.00
28911;BME280;16028;42.642;23.310;2022-12-08T04:43:00;93831.91;;;4.85;100.00
28911;BME280;16028;42.642;23.310;2022-12-08T04:45:28;93836.09;;;4.86;100.00
28911;BME280;16028;42.642;23.310;2022-12-08T04:47:55;93838.66;;;4.86;100.00
28911;BME280;16028;42.642;23.310;2022-12-08T04:50:22;93840.06;;;4.90;100.00
28911;BME280;16028;42.642;23.310;2022-12-08T04:52:48;93844.88;;;4.94;100.00
28911;BME280;16028;42.642;23.310;2022-12-08T04:55:15;93847.56;;;4.93;100.00
28911;BME280;16028;42.642;23.310;2022-12-08T04:57:42;93849.31;;;4.92;100.00
28911;BME280;16028;42.642;23.310;2022-12-08T05:00:11;93847.56;;;4.93;100.00
28911;BME280;16028;42.642;23.310;2022-12-08T05:02:40;93848.16;;;4.96;100.00
28911;BME280;16028;42.642;23.310;2022-12-08T05:05:07;93850.16;;;4.93;100.00
28911;BME280;16028;42.642;23.310;2022-12-08T05:07:34;93847.00;;;5.00;100.00
28911;BME280;16028;42.642;23.310;2022-12-08T05:10:01;93855.53;;;5.01;100.00
28911;BME280;16028;42.642;23.310;2022-12-08T05:12:28;93857.50;;;5.08;100.00
28911;BME280;16028;42.642;23.310;2022-12-08T05:14:55;93857.28;;;5.11;100.00
28911;BME280;16028;42.642;23.310;2022-12-08T05:17:21;93852.69;;;5.15;100.00
28911;BME280;16028;42.642;23.310;2022-12-08T05:19:50;93859.38;;;5.17;100.00
28911;BME280;16028;42.642;23.310;2022-12-08T05:22:16;93854.78;;;5.32;100.00
28911;BME280;16028;42.642;23.310;2022-12-08T05:24:43;93864.97;;;5.33;100.00
28911;BME280;16028;42.642;23.310;2022-12-08T05:27:10;93868.75;;;5.29;100.00
28911;BME280;16028;42.642;23.310;2022-12-08T05:29:37;93863.69;;;5.28;100.00
28911;BME280;16028;42.642;23.310;2022-12-08T05:32:04;93873.09;;;5.29;100.00
28911;BME280;16028;42.642;23.310;2022-12-08T05:34:31;93877.28;;;5.30;100.00
28911;BME280;16028;42.642;23.310;2022-12-08T05:36:59;93875.41;;;5.32;100.00
28911;BME280;16028;42.642;23.310;2022-12-08T05:39:25;93876.34;;;5.31;100.00
28911;BME280;16028;42.642;23.310;2022-12-08T05:41:52;93883.16;;;5.32;100.00
28911;BME280;16028;42.642;23.310;2022-12-08T05:44:19;93882.34;;;5.31;100.00
28911;BME280;16028;42.642;23.310;2022-12-08T05:46:46;93887.72;;;5.28;100.00
28911;BME280;16028;42.642;23.310;2022-12-08T05:49:12;93882.81;;;5.25;100.00
28911;BME280;16028;42.642;23.310;2022-12-08T05:51:39;93887.59;;;5.30;100.00
28911;BME280;16028;42.642;23.310;2022-12-08T05:54:07;93883.28;;;5.19;100.00
28911;BME280;16028;42.642;23.310;2022-12-08T05:56:34;93885.97;;;5.18;100.00
28911;BME280;16028;42.642;23.310;2022-12-08T05:59:00;93882.47;;;5.08;100.00
28911;BME280;16028;42.642;23.310;2022-12-08T06:01:29;93880.72;;;5.08;100.00
28911;BME280;16028;42.642;23.310;2022-12-08T06:03:57;93884.44;;;5.04;100.00
28911;BME280;16028;42.642;23.310;2022-12-08T06:06:25;93891.38;;;5.04;100.00
28911;BME280;16028;42.642;23.310;2022-12-08T06:08:51;93893.72;;;5.07;100.00
28911;BME280;16028;42.642;23.310;2022-12-08T06:11:22;93892.78;;;5.08;100.00
28911;BME280;16028;42.642;23.310;2022-12-08T06:13:49;93888.00;;;5.03;100.00
28911;BME280;16028;42.642;23.310;2022-12-08T06:16:16;93891.97;;;4.96;100.00
28911;BME280;16028;42.642;23.310;2022-12-08T06:18:46;93896.78;;;5.01;100.00
28911;BME280;16028;42.642;23.310;2022-12-08T06:21:14;93900.97;;;5.02;100.00
28911;BME280;16028;42.642;23.310;2022-12-08T06:23:41;93904.50;;;5.01;100.00
28911;BME280;16028;42.642;23.310;2022-12-08T06:26:10;93911.53;;;4.99;100.00
28911;BME280;16028;42.642;23.310;2022-12-08T06:28:39;93908.94;;;4.99;100.00
28911;BME280;16028;42.642;23.310;2022-12-08T06:31:08;93917.16;;;5.04;100.00
28911;BME280;16028;42.642;23.310;2022-12-08T06:33:36;93909.53;;;4.91;100.00
28911;BME280;16028;42.642;23.310;2022-12-08T06:36:03;93904.84;;;4.96;100.00
28911;BME280;16028;42.642;23.310;2022-12-08T06:38:30;93915.72;;;4.89;100.00
28911;BME280;16028;42.642;23.310;2022-12-08T06:40:57;93905.66;;;4.86;100.00
28911;BME280;16028;42.642;23.310;2022-12-08T06:43:25;93894.31;;;4.88;100.00
28911;BME280;16028;42.642;23.310;2022-12-08T06:45:55;93887.38;;;4.89;100.00
28911;BME280;16028;42.642;23.310;2022-12-08T06:48:22;93883.66;;;4.93;100.00
28911;BME280;16028;42.642;23.310;2022-12-08T06:50:48;93889.38;;;4.96;100.00
28911;BME280;16028;42.642;23.310;2022-12-08T06:53:17;93886.72;;;4.98;100.00
28911;BME280;16028;42.642;23.310;2022-12-08T06:55:45;93885.38;;;5.14;100.00
28911;BME280;16028;42.642;23.310;2022-12-08T06:58:12;93893.25;;;5.13;100.00
28911;BME280;16028;42.642;23.310;2022-12-08T07:00:40;93896.63;;;5.24;100.00
28911;BME280;16028;42.642;23.310;2022-12-08T07:03:09;93895.59;;;5.16;100.00
28911;BME280;16028;42.642;23.310;2022-12-08T07:05:37;93906.97;;;5.13;100.00
28911;BME280;16028;42.642;23.310;2022-12-08T07:08:06;93907.91;;;5.12;100.00
28911;BME280;16028;42.642;23.310;2022-12-08T07:10:34;93901.81;;;5.13;100.00
28911;BME280;16028;42.642;23.310;2022-12-08T07:13:01;93902.75;;;5.12;100.00
28911;BME280;16028;42.642;23.310;2022-12-08T07:15:27;93907.91;;;5.12;100.00
28911;BME280;16028;42.642;23.310;2022-12-08T07:17:54;93922.44;;;5.13;100.00
28911;BME280;16028;42.642;23.310;2022-12-08T07:20:22;93937.41;;;5.08;100.00
28911;BME280;16028;42.642;23.310;2022-12-08T07:22:49;93927.94;;;5.20;100.00
28911;BME280;16028;42.642;23.310;2022-12-08T07:25:17;93930.84;;;5.15;100.00
28911;BME280;16028;42.642;23.310;2022-12-08T07:27:44;93940.47;;;5.13;100.00
28911;BME280;16028;42.642;23.310;2022-12-08T07:30:12;93944.94;;;5.22;100.00
28911;BME280;16028;42.642;23.310;2022-12-08T07:32:39;93949.84;;;5.25;100.00
28911;BME280;16028;42.642;23.310;2022-12-08T07:35:07;93946.31;;;5.38;100.00
28911;BME280;16028;42.642;23.310;2022-12-08T07:37:36;93958.03;;;5.30;100.00
28911;BME280;16028;42.642;23.310;2022-12-08T07:40:04;93953.13;;;5.27;100.00
28911;BME280;16028;42.642;23.310;2022-12-08T07:42:31;93948.44;;;5.32;100.00
28911;BME280;16028;42.642;23.310;2022-12-08T07:44:58;93948.66;;;5.41;100.00
28911;BME280;16028;42.642;23.310;2022-12-08T07:47:25;93942.91;;;5.37;100.00
28911;BME280;16028;42.642;23.310;2022-12-08T07:49:51;93946.53;;;5.46;100.00
28911;BME280;16028;42.642;23.310;2022-12-08T07:52:18;93941.38;;;5.46;100.00
28911;BME280;16028;42.642;23.310;2022-12-08T07:54:46;93945.03;;;5.43;100.00
28911;BME280;16028;42.642;23.310;2022-12-08T07:57:13;93944.69;;;5.48;100.00
28911;BME280;16028;42.642;23.310;2022-12-08T07:59:40;93946.63;;;5.55;100.00
28911;BME280;16028;42.642;23.310;2022-12-08T08:02:14;93936.94;;;5.48;100.00
28911;BME280;16028;42.642;23.310;2022-12-08T08:04:41;93944.09;;;5.44;100.00
28911;BME280;16028;42.642;23.310;2022-12-08T08:07:07;93942.78;;;5.50;100.00
28911;BME280;16028;42.642;23.310;2022-12-08T08:09:34;93941.38;;;5.57;100.00
28911;BME280;16028;42.642;23.310;2022-12-08T08:12:03;93941.13;;;5.60;100.00
28911;BME280;16028;42.642;23.310;2022-12-08T08:14:30;93941.47;;;5.66;100.00
28911;BME280;16028;42.642;23.310;2022-12-08T08:16:56;93933.50;;;5.69;100.00
28911;BME280;16028;42.642;23.310;2022-12-08T08:19:23;93936.41;;;5.76;100.00
28911;BME280;16028;42.642;23.310;2022-12-08T08:21:50;93943.34;;;5.75;100.00
28911;BME280;16028;42.642;23.310;2022-12-08T08:24:16;93945.44;;;5.81;100.00
28911;BME280;16028;42.642;23.310;2022-12-08T08:26:44;93944.50;;;5.82;100.00
28911;BME280;16028;42.642;23.310;2022-12-08T08:29:12;93954.50;;;5.87;100.00
28911;BME280;16028;42.642;23.310;2022-12-08T08:31:39;93938.28;;;5.96;100.00
28911;BME280;16028;42.642;23.310;2022-12-08T08:34:06;93934.63;;;5.99;100.00
28911;BME280;16028;42.642;23.310;2022-12-08T08:36:33;93936.03;;;6.03;100.00
28911;BME280;16028;42.642;23.310;2022-12-08T08:39:00;93934.47;;;6.11;100.00
28911;BME280;16028;42.642;23.310;2022-12-08T08:41:27;93936.56;;;6.17;100.00
28911;BME280;16028;42.642;23.310;2022-12-08T08:43:56;93942.16;;;6.22;100.00
28911;BME280;16028;42.642;23.310;2022-12-08T08:46:24;93945.03;;;6.40;100.00
28911;BME280;16028;42.642;23.310;2022-12-08T08:48:51;93936.59;;;6.38;100.00
28911;BME280;16028;42.642;23.310;2022-12-08T08:51:20;93945.84;;;6.41;100.00
28911;BME280;16028;42.642;23.310;2022-12-08T08:53:46;93936.34;;;6.41;100.00
28911;BME280;16028;42.642;23.310;2022-12-08T08:56:15;93925.13;;;6.52;100.00
28911;BME280;16028;42.642;23.310;2022-12-08T08:58:43;93939.94;;;6.50;100.00
28911;BME280;16028;42.642;23.310;2022-12-08T09:01:14;93925.63;;;6.46;100.00
28911;BME280;16028;42.642;23.310;2022-12-08T09:03:43;93913.72;;;6.54;100.00
28911;BME280;16028;42.642;23.310;2022-12-08T09:06:10;93924.88;;;6.55;100.00
28911;BME280;16028;42.642;23.310;2022-12-08T09:08:38;93924.00;;;6.65;100.00
28911;BME280;16028;42.642;23.310;2022-12-08T09:11:05;93922.56;;;6.72;100.00
28911;BME280;16028;42.642;23.310;2022-12-08T09:13:32;93922.41;;;6.74;100.00
28911;BME280;16028;42.642;23.310;2022-12-08T09:15:59;93905.09;;;6.85;100.00
28911;BME280;16028;42.642;23.310;2022-12-08T09:18:27;93912.44;;;6.90;100.00
28911;BME280;16028;42.642;23.310;2022-12-08T09:21:02;93914.19;;;6.89;100.00
28911;BME280;16028;42.642;23.310;2022-12-08T09:23:29;93902.91;;;6.90;100.00
28911;BME280;16028;42.642;23.310;2022-12-08T09:25:56;93901.88;;;7.03;100.00
28911;BME280;16028;42.642;23.310;2022-12-08T09:28:23;93901.09;;;7.12;100.00
28911;BME280;16028;42.642;23.310;2022-12-08T09:30:50;93908.50;;;7.16;100.00
28911;BME280;16028;42.642;23.310;2022-12-08T09:33:16;93916.94;;;7.18;100.00
28911;BME280;16028;42.642;23.310;2022-12-08T09:35:43;93907.72;;;7.25;100.00
28911;BME280;16028;42.642;23.310;2022-12-08T09:38:11;93885.41;;;7.34;100.00
28911;BME280;16028;42.642;23.310;2022-12-08T09:40:41;93888.16;;;7.42;100.00
28911;BME280;16028;42.642;23.310;2022-12-08T09:43:22;93893.06;;;7.45;100.00
28911;BME280;16028;42.642;23.310;2022-12-08T09:45:51;93904.25;;;7.45;100.00
28911;BME280;16028;42.642;23.310;2022-12-08T09:48:21;93894.56;;;7.47;100.00
28911;BME280;16028;42.642;23.310;2022-12-08T09:50:51;93886.47;;;7.71;100.00
28911;BME280;16028;42.642;23.310;2022-12-08T09:53:24;93891.09;;;7.77;100.00
28911;BME280;16028;42.642;23.310;2022-12-08T09:55:54;93881.16;;;7.82;100.00
28911;BME280;16028;42.642;23.310;2022-12-08T09:58:26;93885.00;;;7.78;100.00
28911;BME280;16028;42.642;23.310;2022-12-08T10:00:55;93884.00;;;7.79;100.00
28911;BME280;16028;42.642;23.310;2022-12-08T10:03:24;93873.66;;;7.79;100.00
28911;BME280;16028;42.642;23.310;2022-12-08T10:05:57;93866.44;;;7.83;100.00
28911;BME280;16028;42.642;23.310;2022-12-08T10:08:35;93862.09;;;7.93;100.00
28911;BME280;16028;42.642;23.310;2022-12-08T10:11:10;93867.41;;;8.01;100.00
28911;BME280;16028;42.642;23.310;2022-12-08T10:13:44;93843.41;;;8.09;100.00
28911;BME280;16028;42.642;23.310;2022-12-08T10:16:21;93840.28;;;8.15;100.00
28911;BME280;16028;42.642;23.310;2022-12-08T10:18:55;93832.78;;;8.21;100.00
28911;BME280;16028;42.642;23.310;2022-12-08T10:21:26;93845.47;;;8.24;100.00
28911;BME280;16028;42.642;23.310;2022-12-08T10:23:58;93847.69;;;8.29;100.00
28911;BME280;16028;42.642;23.310;2022-12-08T10:26:27;93837.44;;;8.37;100.00
28911;BME280;16028;42.642;23.310;2022-12-08T10:28:57;93844.34;;;8.56;97.63
28911;BME280;16028;42.642;23.310;2022-12-08T10:31:25;93842.44;;;8.58;96.85
28911;BME280;16028;42.642;23.310;2022-12-08T10:33:57;93837.91;;;8.69;96.75
28911;BME280;16028;42.642;23.310;2022-12-08T10:36:43;93837.78;;;8.71;97.31
28911;BME280;16028;42.642;23.310;2022-12-08T10:39:33;93838.94;;;8.95;94.54
28911;BME280;16028;42.642;23.310;2022-12-08T10:42:01;93834.53;;;9.06;91.31
28911;BME280;16028;42.642;23.310;2022-12-08T10:44:28;93833.44;;;8.98;91.36
28911;BME280;16028;42.642;23.310;2022-12-08T10:46:55;93825.00;;;8.96;92.88
28911;BME280;16028;42.642;23.310;2022-12-08T10:49:26;93815.53;;;9.05;92.98
28911;BME280;16028;42.642;23.310;2022-12-08T10:51:56;93804.34;;;9.04;94.45
28911;BME280;16028;42.642;23.310;2022-12-08T10:54:26;93817.97;;;9.07;95.74
28911;BME280;16028;42.642;23.310;2022-12-08T10:56:56;93810.31;;;9.15;95.82
28911;BME280;16028;42.642;23.310;2022-12-08T10:59:23;93797.00;;;9.27;94.31
28911;BME280;16028;42.642;23.310;2022-12-08T11:01:51;93798.88;;;9.35;93.23
28911;BME280;16028;42.642;23.310;2022-12-08T11:04:19;93802.94;;;9.37;92.96
28911;BME280;16028;42.642;23.310;2022-12-08T11:06:48;93803.13;;;9.53;89.97
28911;BME280;16028;42.642;23.310;2022-12-08T11:09:35;93798.97;;;9.61;89.98
28911;BME280;16028;42.642;23.310;2022-12-08T11:12:12;93804.47;;;9.75;88.56
28911;BME280;16028;42.642;23.310;2022-12-08T11:14:48;93795.78;;;9.84;88.41
28911;BME280;16028;42.642;23.310;2022-12-08T11:17:22;93787.88;;;9.86;88.20
28911;BME280;16028;42.642;23.310;2022-12-08T11:19:55;93780.88;;;9.86;88.90
28911;BME280;16028;42.642;23.310;2022-12-08T11:22:25;93776.72;;;9.93;89.00
28911;BME280;16028;42.642;23.310;2022-12-08T11:24:57;93771.22;;;9.96;89.91
28911;BME280;16028;42.642;23.310;2022-12-08T11:27:26;93766.63;;;10.08;87.14
28911;BME280;16028;42.642;23.310;2022-12-08T11:29:53;93773.72;;;10.06;87.87
28911;BME280;16028;42.642;23.310;2022-12-08T11:32:20;93774.56;;;10.06;88.26
28911;BME280;16028;42.642;23.310;2022-12-08T11:34:50;93768.91;;;10.11;88.32
28911;BME280;16028;42.642;23.310;2022-12-08T11:37:22;93768.47;;;10.33;83.46
28911;BME280;16028;42.642;23.310;2022-12-08T11:39:53;93775.78;;;10.38;81.90
28911;BME280;16028;42.642;23.310;2022-12-08T11:42:23;93779.16;;;10.30;81.83
28911;BME280;16028;42.642;23.310;2022-12-08T11:44:57;93775.16;;;10.18;83.80
28911;BME280;16028;42.642;23.310;2022-12-08T11:47:27;93772.72;;;10.17;83.24
28911;BME280;16028;42.642;23.310;2022-12-08T11:50:00;93765.34;;;10.12;85.01
28911;BME280;16028;42.642;23.310;2022-12-08T11:52:30;93765.56;;;10.19;83.62
28911;BME280;16028;42.642;23.310;2022-12-08T11:55:01;93760.59;;;10.25;83.23
28911;BME280;16028;42.642;23.310;2022-12-08T11:57:29;93756.06;;;10.27;82.77
28911;BME280;16028;42.642;23.310;2022-12-08T12:00:01;93757.38;;;10.31;83.09
28911;BME280;16028;42.642;23.310;2022-12-08T12:02:31;93756.56;;;10.31;82.89
28911;BME280;16028;42.642;23.310;2022-12-08T12:05:04;93756.78;;;10.37;82.82
28911;BME280;16028;42.642;23.310;2022-12-08T12:07:56;93759.38;;;10.37;83.19
28911;BME280;16028;42.642;23.310;2022-12-08T12:10:49;93757.66;;;10.46;79.79
28911;BME280;16028;42.642;23.310;2022-12-08T12:13:37;93752.56;;;10.36;80.47
28911;BME280;16028;42.642;23.310;2022-12-08T12:16:28;93754.34;;;10.18;82.03
28911;BME280;16028;42.642;23.310;2022-12-08T12:19:02;93761.25;;;10.09;82.86
28911;BME280;16028;42.642;23.310;2022-12-08T12:21:33;93751.69;;;10.10;82.80
28911;BME280;16028;42.642;23.310;2022-12-08T12:24:03;93763.03;;;10.09;84.00
28911;BME280;16028;42.642;23.310;2022-12-08T12:26:35;93752.94;;;10.06;85.18
28911;BME280;16028;42.642;23.310;2022-12-08T12:29:05;93746.78;;;10.07;86.20
28911;BME280;16028;42.642;23.310;2022-12-08T12:31:36;93742.88;;;10.21;85.58
28911;BME280;16028;42.642;23.310;2022-12-08T12:34:07;93743.06;;;10.27;85.23
28911;BME280;16028;42.642;23.310;2022-12-08T12:36:46;93742.16;;;10.36;86.06
28911;BME280;16028;42.642;23.310;2022-12-08T12:39:14;93733.06;;;10.40;85.85
28911;BME280;16028;42.642;23.310;2022-12-08T12:41:47;93740.41;;;10.45;86.14
28911;BME280;16028;42.642;23.310;2022-12-08T12:44:35;93729.28;;;10.60;82.35
28911;BME280;16028;42.642;23.310;2022-12-08T12:47:10;93731.47;;;10.73;79.71
28911;BME280;16028;42.642;23.310;2022-12-08T12:49:51;93733.94;;;10.83;78.71
28911;BME280;16028;42.642;23.310;2022-12-08T12:52:38;93731.16;;;10.76;79.31
28911;BME280;16028;42.642;23.310;2022-12-08T13:01:45;93727.41;;;10.71;80.99
28911;BME280;16028;42.642;23.310;2022-12-08T13:04:16;93719.41;;;10.64;82.60
28911;BME280;16028;42.642;23.310;2022-12-08T13:06:45;93714.91;;;10.74;80.78
28911;BME280;16028;42.642;23.310;2022-12-08T13:09:21;93717.44;;;10.66;81.84
28911;BME280;16028;42.642;23.310;2022-12-08T13:11:50;93720.34;;;10.63;83.12
28911;BME280;16028;42.642;23.310;2022-12-08T13:14:30;93723.97;;;10.70;81.79